Map

Track Data

SID SEASON NUMBER BASIN SUBBASIN NAME ISO_TIME NATURE LAT LON WMO_WIND WMO_PRES WMO_AGENCY TRACK_TYPE DIST2LAND LANDFALL IFLAG USA_AGENCY USA_ATCF_ID USA_LAT USA_LON USA_RECORD USA_STATUS USA_WIND USA_PRES USA_SSHS USA_R34_NE USA_R34_SE USA_R34_SW USA_R34_NW USA_R50_NE USA_R50_SE USA_R50_SW USA_R50_NW USA_R64_NE USA_R64_SE USA_R64_SW USA_R64_NW USA_POCI USA_ROCI USA_RMW USA_EYE TOKYO_LAT TOKYO_LON TOKYO_GRADE TOKYO_WIND TOKYO_PRES TOKYO_R50_DIR TOKYO_R50_LONG TOKYO_R50_SHORT TOKYO_R30_DIR TOKYO_R30_LONG TOKYO_R30_SHORT TOKYO_LAND CMA_LAT CMA_LON CMA_CAT CMA_WIND CMA_PRES HKO_LAT HKO_LON HKO_CAT HKO_WIND HKO_PRES NEWDELHI_LAT NEWDELHI_LON NEWDELHI_GRADE NEWDELHI_WIND NEWDELHI_PRES NEWDELHI_CI NEWDELHI_DP NEWDELHI_POCI REUNION_LAT REUNION_LON REUNION_TYPE REUNION_WIND REUNION_PRES REUNION_TNUM REUNION_CI REUNION_RMW REUNION_R34_NE REUNION_R34_SE REUNION_R34_SW REUNION_R34_NW REUNION_R50_NE REUNION_R50_SE REUNION_R50_SW REUNION_R50_NW REUNION_R64_NE REUNION_R64_SE REUNION_R64_SW REUNION_R64_NW BOM_LAT BOM_LON BOM_TYPE BOM_WIND BOM_PRES BOM_TNUM BOM_CI BOM_RMW BOM_R34_NE BOM_R34_SE BOM_R34_SW BOM_R34_NW BOM_R50_NE BOM_R50_SE BOM_R50_SW BOM_R50_NW BOM_R64_NE BOM_R64_SE BOM_R64_SW BOM_R64_NW BOM_ROCI BOM_POCI BOM_EYE BOM_POS_METHOD BOM_PRES_METHOD NADI_LAT NADI_LON NADI_CAT NADI_WIND NADI_PRES WELLINGTON_LAT WELLINGTON_LON WELLINGTON_WIND WELLINGTON_PRES DS824_LAT DS824_LON DS824_STAGE DS824_WIND DS824_PRES TD9636_LAT TD9636_LON TD9636_STAGE TD9636_WIND TD9636_PRES TD9635_LAT TD9635_LON TD9635_WIND TD9635_PRES TD9635_ROCI NEUMANN_LAT NEUMANN_LON NEUMANN_CLASS NEUMANN_WIND NEUMANN_PRES MLC_LAT MLC_LON MLC_CLASS MLC_WIND MLC_PRES USA_GUST BOM_GUST BOM_GUST_PER REUNION_GUST REUNION_GUST_PER USA_SEAHGT USA_SEARAD_NE USA_SEARAD_SE USA_SEARAD_SW USA_SEARAD_NW STORM_SPEED STORM_DIR
1950222N25140 1950 56 WP MM NOT_NAMED 1950-08-09 18:00:00 TS 24.7000 140.000 main 1052 1015 __O___________ -1 24.7000 140.000 0 1000 9 9
1950222N25140 1950 56 WP MM NOT_NAMED 1950-08-09 21:00:00 TS 25.1372 140.081 main 1015 972 __P___________ -1 25.1372 140.081 0 999 9 17
1950222N25140 1950 56 WP MM NOT_NAMED 1950-08-10 00:00:00 TS 25.6000 140.300 main 972 941 __O___________ -1 25.6000 140.300 0 998 11 31
1950222N25140 1950 56 WP MM NOT_NAMED 1950-08-10 03:00:00 TS 26.1005 140.722 main 941 913 __P___________ -1 26.1005 140.722 0 998 12 36
1950222N25140 1950 56 WP MM NOT_NAMED 1950-08-10 06:00:00 TS 26.6000 141.100 main 913 867 __O___________ -1 26.6000 141.100 0 998 12 23
1950222N25140 1950 56 WP MM NOT_NAMED 1950-08-10 09:00:00 TS 27.1620 141.236 main 856 821 __P___________ -1 27.1620 141.236 0 998 9 0
1950222N25140 1950 56 WP MM NOT_NAMED 1950-08-10 12:00:00 TS 27.5000 141.100 main 821 811 __O___________ -1 27.5000 141.100 0 998 6 288
1950222N25140 1950 56 WP MM NOT_NAMED 1950-08-10 15:00:00 TS 27.3559 140.569 main 811 810 __P___________ -1 27.3559 140.569 0 997 10 241
1950222N25140 1950 56 WP MM NOT_NAMED 1950-08-10 18:00:00 TS 27.0000 140.100 main 824 824 __O___________ -1 27.0000 140.100 1 29 996 8 206
1950222N25140 1950 56 WP MM NOT_NAMED 1950-08-10 21:00:00 TS 26.6674 140.196 main 858 858 __P___________ -1 26.6674 140.196 1 29 996 6 144
1950222N25140 1950 56 WP MM NOT_NAMED 1950-08-11 00:00:00 TS 26.5000 140.500 main 892 883 __O___________ -1 26.5000 140.500 1 29 996 5 87
1950222N25140 1950 56 WP MM NOT_NAMED 1950-08-11 03:00:00 TS 26.6950 140.722 main 883 856 __P___________ -1 26.6950 140.722 1 33 996 7 31
1950222N25140 1950 56 WP MM NOT_NAMED 1950-08-11 06:00:00 TS 27.1000 140.900 main 856 819 __O___________ -1 27.1000 140.900 2 38 996 9 16
1950222N25140 1950 56 WP MM NOT_NAMED 1950-08-11 09:00:00 TS 27.5275 140.980 main 819 765 __P___________ -1 27.5275 140.980 2 38 995 9 5
1950222N25140 1950 56 WP MM NOT_NAMED 1950-08-11 12:00:00 TS 28.0000 141.000 main 765 722 __O___________ -1 28.0000 141.000 2 38 994 9 3
1950222N25140 1950 56 WP MM NOT_NAMED 1950-08-11 15:00:00 TS 28.4649 141.037 main 711 668 __P___________ -1 28.4649 141.037 2 38 994 9 0
1950222N25140 1950 56 WP MM NOT_NAMED 1950-08-11 18:00:00 TS 28.9000 141.000 main 668 623 __O___________ -1 28.9000 141.000 2 38 994 8 350
1950222N25140 1950 56 WP MM NOT_NAMED 1950-08-11 21:00:00 TS 29.2797 140.875 main 623 582 __P___________ -1 29.2797 140.875 2 38 993 8 333
1950222N25140 1950 56 WP MM NOT_NAMED 1950-08-12 00:00:00 TS 29.6000 140.600 main 582 540 __O___________ -1 29.6000 140.600 2 38 992 8 315
1950222N25140 1950 56 WP MM NOT_NAMED 1950-08-12 03:00:00 TS 29.8722 140.182 main 540 507 __P___________ -1 29.8722 140.182 2 43 991 10 300
1950222N25140 1950 56 WP MM NOT_NAMED 1950-08-12 06:00:00 TS 30.1000 139.600 main 507 452 __O___________ -1 30.1000 139.600 3 48 990 12 292
1950222N25140 1950 56 WP MM NOT_NAMED 1950-08-12 09:00:00 TS 30.3149 138.902 main 452 389 __P___________ -1 30.3149 138.902 3 48 990 14 287
1950222N25140 1950 56 WP MM NOT_NAMED 1950-08-12 12:00:00 TS 30.5000 138.100 main 389 342 __O___________ -1 30.5000 138.100 3 48 990 15 282
1950222N25140 1950 56 WP MM NOT_NAMED 1950-08-12 15:00:00 TS 30.6274 137.256 main 342 295 __P___________ -1 30.6274 137.256 3 48 990 15 282
1950222N25140 1950 56 WP MM NOT_NAMED 1950-08-12 18:00:00 TS 30.8000 136.400 main 295 256 __O___________ -1 30.8000 136.400 3 48 990 15 288
1950222N25140 1950 56 WP MM NOT_NAMED 1950-08-12 21:00:00 TS 31.0966 135.607 main 257 197 __P___________ -1 31.0966 135.607 3 48 990 15 297
1950222N25140 1950 56 WP MM NOT_NAMED 1950-08-13 00:00:00 TS 31.5000 134.800 main 197 122 __O___________ -1 31.5000 134.800 3 48 990 17 302
1950222N25140 1950 56 WP MM NOT_NAMED 1950-08-13 03:00:00 TS 31.9993 133.930 main 114 24 __P___________ -1 31.9993 133.930 3 43 991 18 303
1950222N25140 1950 56 WP MM NOT_NAMED 1950-08-13 06:00:00 TS 32.5000 133.000 main 22 11 __O___________ -1 32.5000 133.000 2 38 992 18 297
1950222N25140 1950 56 WP MM NOT_NAMED 1950-08-13 09:00:00 TS 32.8422 132.005 main 9 0 __P___________ -1 32.8422 132.005 2 38 992 18 293
1950222N25140 1950 56 WP MM NOT_NAMED 1950-08-13 12:00:00 TS 33.2000 131.000 main 0 0 __O___________ -1 33.2000 131.000 2 38 992 19 297
1950222N25140 1950 56 WP MM NOT_NAMED 1950-08-13 15:00:00 TS 33.6970 130.027 main 14 14 __P___________ -1 33.6970 130.027 2 43 991 19 305
1950222N25140 1950 56 WP MM NOT_NAMED 1950-08-13 18:00:00 TS 34.3000 129.100 main 78 0 __O___________ -1 34.3000 129.100 3 48 990 20 309
1950222N25140 1950 56 WP MM NOT_NAMED 1950-08-13 21:00:00 TS 34.9405 128.146 main 0 0 __P___________ -1 34.9405 128.146 3 43 992 20 315
1950222N25140 1950 56 WP MM NOT_NAMED 1950-08-14 00:00:00 TS 35.7000 127.400 main 0 0 __O___________ -1 35.7000 127.400 2 38 995 19 332
1950222N25140 1950 56 WP MM NOT_NAMED 1950-08-14 03:00:00 TS 36.6069 127.034 main 0 0 __P___________ -1 36.6069 127.034 2 33 997 19 348
1950222N25140 1950 56 WP MM NOT_NAMED 1950-08-14 06:00:00 TS 37.6000 126.900 main 0 __O___________ -1 37.6000 126.900 1 29 1000 20 354

Digital Typhoon Data and Search

About IBTrACS Database

This database is a web-friendly format of International Best Track Archive for Climate Stewardship (IBTrACS), a global best track data archive curated by NOAA dating back to 1842.

Updated: 2021-10-21